createdAt,value
2022-09-21T00:01:35.911Z,16.48
2022-09-21T00:04:05.036Z,17.10
2022-09-21T00:06:34.678Z,16.98
2022-09-21T00:09:05.165Z,17.27
2022-09-21T00:11:35.358Z,19.80
2022-09-21T00:14:07.194Z,18.10
2022-09-21T00:16:35.983Z,19.23
2022-09-21T00:19:04.413Z,18.48
2022-09-21T00:21:34.267Z,18.67
2022-09-21T00:24:03.524Z,19.70
2022-09-21T00:26:32.099Z,20.92
2022-09-21T00:29:04.067Z,21.30
2022-09-21T00:31:34.120Z,23.15
2022-09-21T00:34:03.472Z,22.95
2022-09-21T00:36:31.270Z,22.77
2022-09-21T00:39:01.709Z,22.45
2022-09-21T00:41:31.072Z,22.65
2022-09-21T00:44:25.771Z,22.48
2022-09-21T00:46:56.614Z,24.00
2022-09-21T00:49:26.372Z,25.25
2022-09-21T00:51:54.995Z,23.73
2022-09-21T00:54:27.003Z,23.15
2022-09-21T00:56:56.586Z,24.13
2022-09-21T00:59:29.948Z,25.17
2022-09-21T01:01:59.754Z,25.48
2022-09-21T01:04:29.191Z,24.08
2022-09-21T01:06:58.739Z,25.38
2022-09-21T01:09:27.674Z,27.77
2022-09-21T01:12:08.000Z,28.27
2022-09-21T01:15:09.158Z,31.00
2022-09-21T01:17:45.879Z,31.58
2022-09-21T01:20:41.056Z,34.58
2022-09-21T01:23:27.244Z,34.47
2022-09-21T01:26:08.444Z,34.47
2022-09-21T01:29:09.267Z,31.33
2022-09-21T01:31:42.509Z,32.30
2022-09-21T01:34:16.934Z,31.35
2022-09-21T01:36:49.268Z,31.40
2022-09-21T01:39:20.691Z,31.17
2022-09-21T01:41:51.881Z,32.72
2022-09-21T01:44:22.815Z,31.98
2022-09-21T01:46:53.852Z,32.27
2022-09-21T01:49:26.240Z,31.85
2022-09-21T01:51:59.628Z,32.75
2022-09-21T01:54:34.120Z,33.42
2022-09-21T01:57:07.380Z,31.73
2022-09-21T01:59:44.074Z,33.45
2022-09-21T02:02:18.001Z,33.20
2022-09-21T02:04:45.973Z,32.38
2022-09-21T02:07:14.037Z,34.55
2022-09-21T02:09:41.749Z,33.60
2022-09-21T02:12:10.582Z,33.45
2022-09-21T02:14:39.688Z,32.25
2022-09-21T02:17:25.446Z,32.35
2022-09-21T02:20:00.023Z,32.22
2022-09-21T02:22:36.107Z,34.83
2022-09-21T02:25:09.592Z,31.55
2022-09-21T02:27:44.571Z,33.38
2022-09-21T02:30:16.330Z,33.95
2022-09-21T02:32:51.340Z,35.47
2022-09-21T02:35:30.352Z,35.92
2022-09-21T02:38:06.712Z,35.05
2022-09-21T02:40:39.262Z,35.67
2022-09-21T02:43:13.632Z,34.13
2022-09-21T02:45:45.669Z,33.55
2022-09-21T02:48:19.441Z,36.67
2022-09-21T02:50:51.605Z,36.83
2022-09-21T02:53:25.792Z,35.35
2022-09-21T02:55:56.691Z,33.70
2022-09-21T02:58:27.292Z,34.25
2022-09-21T03:00:57.357Z,35.90
2022-09-21T03:03:26.520Z,34.42
2022-09-21T03:05:56.113Z,33.60
2022-09-21T03:08:24.341Z,33.72
2022-09-21T03:10:52.183Z,33.22
2022-09-21T03:13:20.312Z,33.10
2022-09-21T03:15:48.702Z,34.88
2022-09-21T03:18:16.549Z,33.72
2022-09-21T03:20:47.031Z,33.50
2022-09-21T03:23:15.402Z,35.67
2022-09-21T03:25:45.809Z,34.60
2022-09-21T03:28:14.390Z,34.65
2022-09-21T03:30:42.644Z,36.60
2022-09-21T03:33:12.820Z,35.72
2022-09-21T03:35:41.163Z,35.13
2022-09-21T03:38:10.857Z,38.35
2022-09-21T03:40:38.774Z,37.92
2022-09-21T03:43:06.652Z,37.97
2022-09-21T03:45:34.597Z,37.22
2022-09-21T03:48:02.777Z,36.38
2022-09-21T03:50:31.144Z,39.80
2022-09-21T03:52:59.629Z,37.70
2022-09-21T03:55:29.750Z,37.28
2022-09-21T03:57:57.736Z,35.70
2022-09-21T04:00:25.770Z,37.15
2022-09-21T04:02:53.980Z,36.75
2022-09-21T04:05:22.473Z,37.67
2022-09-21T04:07:51.537Z,38.03
2022-09-21T04:10:26.952Z,36.63
2022-09-21T04:13:01.036Z,35.95
2022-09-21T04:15:29.597Z,35.85
2022-09-21T04:17:59.124Z,36.22
2022-09-21T04:20:26.912Z,36.63
2022-09-21T04:22:54.709Z,36.47
2022-09-21T04:25:22.875Z,34.38
2022-09-21T04:27:51.621Z,36.13
2022-09-21T04:30:20.969Z,36.72
2022-09-21T04:32:49.153Z,35.65
2022-09-21T04:35:16.996Z,35.67
2022-09-21T04:37:44.799Z,37.80
2022-09-21T04:40:13.402Z,37.22
2022-09-21T04:42:41.287Z,35.47
2022-09-21T04:45:10.267Z,36.05
2022-09-21T04:47:39.729Z,37.35
2022-09-21T04:50:08.567Z,37.47
2022-09-21T04:52:36.562Z,38.22
2022-09-21T04:55:05.021Z,37.90
2022-09-21T04:57:32.827Z,39.63
2022-09-21T05:00:00.642Z,37.33
2022-09-21T05:02:28.636Z,39.30
2022-09-21T05:04:57.712Z,39.00
2022-09-21T05:07:25.428Z,38.13
2022-09-21T05:10:04.705Z,38.60
2022-09-21T05:12:37.529Z,35.55
2022-09-21T05:15:08.926Z,36.60
2022-09-21T05:17:36.640Z,35.35
2022-09-21T05:20:06.993Z,34.65
2022-09-21T05:22:35.492Z,37.05
2022-09-21T05:25:03.244Z,36.35
2022-09-21T05:27:30.985Z,34.38
2022-09-21T05:29:59.512Z,34.78
2022-09-21T05:32:38.836Z,34.13
2022-09-21T05:35:19.172Z,35.03
2022-09-21T05:37:51.501Z,36.33
2022-09-21T05:40:20.249Z,37.78
2022-09-21T05:42:48.597Z,38.90
2022-09-21T05:45:18.651Z,37.25
2022-09-21T05:48:03.339Z,35.00
2022-09-21T05:50:42.534Z,34.22
2022-09-21T05:53:25.865Z,35.65
2022-09-21T05:55:57.762Z,37.00
2022-09-21T06:01:14.502Z,36.22
2022-09-21T06:03:43.585Z,37.05
2022-09-21T06:06:12.734Z,36.90
2022-09-21T06:08:40.605Z,36.78
2022-09-21T06:11:08.687Z,35.78
2022-09-21T06:13:37.399Z,37.72
2022-09-21T06:16:06.132Z,37.67
2022-09-21T06:18:38.515Z,36.42
2022-09-21T06:23:36.428Z,37.30
2022-09-21T06:26:04.689Z,38.03
2022-09-21T06:28:33.768Z,38.38
2022-09-21T06:31:01.521Z,37.22
2022-09-21T06:33:29.547Z,37.97
2022-09-21T06:35:58.663Z,36.53
2022-09-21T06:38:28.163Z,37.72
2022-09-21T06:41:02.692Z,35.38
2022-09-21T06:43:31.722Z,34.85
2022-09-21T06:46:01.560Z,35.20
2022-09-21T06:48:31.523Z,33.58
2022-09-21T06:51:00.433Z,34.95
2022-09-21T06:53:29.341Z,34.92
2022-09-21T06:56:03.151Z,35.53
2022-09-21T06:58:34.147Z,32.33
2022-09-21T07:01:07.462Z,32.28
2022-09-21T07:03:36.636Z,33.33
2022-09-21T07:06:04.848Z,30.85
2022-09-21T07:11:23.936Z,31.20
2022-09-21T07:13:52.755Z,33.88
2022-09-21T07:16:21.563Z,33.80
2022-09-21T07:18:50.034Z,34.67
2022-09-21T07:21:17.929Z,32.40
2022-09-21T07:23:45.634Z,30.20
2022-09-21T07:26:14.883Z,30.98
2022-09-21T07:28:43.982Z,30.92
2022-09-21T07:31:14.959Z,30.08
2022-09-21T07:33:44.585Z,30.20
2022-09-21T07:36:12.937Z,31.88
2022-09-21T07:38:43.393Z,30.55
2022-09-21T07:41:13.582Z,27.95
2022-09-21T07:43:41.778Z,30.27
2022-09-21T07:46:13.593Z,30.17
2022-09-21T07:48:42.431Z,29.17
2022-09-21T07:51:12.525Z,27.83
2022-09-21T07:53:42.012Z,27.17
2022-09-21T07:56:12.448Z,28.25
2022-09-21T07:58:58.310Z,29.67
2022-09-21T08:01:29.005Z,30.00
2022-09-21T08:03:58.497Z,29.73
2022-09-21T08:06:29.394Z,30.17
2022-09-21T08:08:58.153Z,29.70
2022-09-21T08:11:27.812Z,31.05
2022-09-21T08:13:57.617Z,33.55
2022-09-21T08:16:27.655Z,33.22
2022-09-21T08:18:55.687Z,33.28
2022-09-21T08:21:23.756Z,36.65
2022-09-21T08:23:51.785Z,37.80
2022-09-21T08:26:21.306Z,35.70
2022-09-21T08:28:51.134Z,34.83
2022-09-21T08:31:21.429Z,37.97
2022-09-21T08:33:51.356Z,37.50
2022-09-21T08:36:19.525Z,35.85
2022-09-21T08:38:48.336Z,34.80
2022-09-21T08:41:20.340Z,36.13
2022-09-21T08:46:21.461Z,31.60
2022-09-21T08:48:56.521Z,30.60
2022-09-21T08:51:28.747Z,29.38
2022-09-21T08:53:59.909Z,29.58
2022-09-21T08:56:47.165Z,32.97
2022-09-21T08:59:16.602Z,30.63
2022-09-21T09:01:59.545Z,30.08
2022-09-21T09:04:55.291Z,31.63
2022-09-21T09:07:43.279Z,29.05
2022-09-21T09:10:34.074Z,31.75
2022-09-21T09:13:20.062Z,32.03
2022-09-21T09:16:05.122Z,32.10
2022-09-21T09:18:43.570Z,31.85
2022-09-21T09:21:27.753Z,29.10
2022-09-21T09:24:03.878Z,30.77
2022-09-21T09:26:39.918Z,31.17
2022-09-21T09:29:17.936Z,29.35
2022-09-21T09:31:46.411Z,29.23
2022-09-21T09:34:20.679Z,25.55
2022-09-21T09:36:58.798Z,25.23
2022-09-21T09:39:30.624Z,26.30
2022-09-21T09:42:25.355Z,24.15
2022-09-21T09:45:19.030Z,23.38
2022-09-21T09:48:03.058Z,21.58
2022-09-21T09:50:34.312Z,20.92
2022-09-21T09:53:10.849Z,19.38
2022-09-21T09:55:41.011Z,19.17
2022-09-21T09:58:19.891Z,19.15
2022-09-21T10:00:51.969Z,19.77
2022-09-21T10:03:22.466Z,18.80
2022-09-21T10:05:50.878Z,19.42
2022-09-21T10:08:31.746Z,18.30
2022-09-21T10:10:59.866Z,18.05
2022-09-21T10:13:30.767Z,17.15
2022-09-21T10:16:00.815Z,17.92
2022-09-21T10:18:38.269Z,16.63
2022-09-21T10:21:08.781Z,16.67
2022-09-21T10:23:39.316Z,16.55
2022-09-21T10:26:11.449Z,20.08
2022-09-21T10:28:56.530Z,17.65
2022-09-21T10:31:26.974Z,18.58
2022-09-21T10:34:13.475Z,16.65
2022-09-21T10:36:43.021Z,17.77
2022-09-21T10:39:24.383Z,17.15
2022-09-21T10:42:03.638Z,15.55
2022-09-21T10:44:39.684Z,15.23
2022-09-21T10:47:34.521Z,14.23
2022-09-21T10:50:05.287Z,14.18
2022-09-21T10:52:35.988Z,13.75
2022-09-21T10:55:08.363Z,13.00
2022-09-21T10:57:36.182Z,12.63
2022-09-21T11:00:14.009Z,13.55
2022-09-21T11:02:43.370Z,13.55
2022-09-21T11:05:16.634Z,14.27
2022-09-21T11:07:50.769Z,14.48
2022-09-21T11:10:25.452Z,13.30
2022-09-21T11:13:03.773Z,12.00
2022-09-21T11:15:42.829Z,11.50
2022-09-21T11:18:19.289Z,11.82
2022-09-21T11:20:50.712Z,10.88
2022-09-21T11:23:34.672Z,12.30
2022-09-21T11:26:11.890Z,13.57
2022-09-21T11:28:48.905Z,10.02
2022-09-21T11:31:42.287Z,11.10
2022-09-21T11:34:27.876Z,12.02
2022-09-21T11:37:05.949Z,9.73
2022-09-21T11:39:44.831Z,9.35
2022-09-21T11:42:33.428Z,10.10
2022-09-21T11:45:03.228Z,9.25
2022-09-21T11:47:47.716Z,10.80
2022-09-21T11:50:31.091Z,8.18
2022-09-21T11:53:12.162Z,8.15
2022-09-21T11:55:53.737Z,7.95
2022-09-21T11:58:31.330Z,8.02
2022-09-21T12:01:12.046Z,8.07
2022-09-21T12:03:51.494Z,6.68
2022-09-21T12:06:33.089Z,6.53
2022-09-21T12:11:44.475Z,7.57
2022-09-21T12:14:23.255Z,7.65
2022-09-21T12:16:58.863Z,7.18
2022-09-21T12:19:35.675Z,7.18
2022-09-21T12:22:09.141Z,7.28
2022-09-21T12:24:43.517Z,6.47
2022-09-21T12:27:22.734Z,7.15
2022-09-21T12:29:55.974Z,7.72
2022-09-21T12:32:29.683Z,6.82
2022-09-21T12:35:03.442Z,7.28
2022-09-21T12:37:39.392Z,7.80
2022-09-21T12:40:16.866Z,8.27
2022-09-21T12:42:49.685Z,7.97
2022-09-21T12:45:23.985Z,9.35
2022-09-21T12:47:59.303Z,7.47
2022-09-21T12:50:31.144Z,7.32
2022-09-21T12:55:44.530Z,7.63
2022-09-21T12:58:23.359Z,6.82
2022-09-21T13:01:01.410Z,6.63
2022-09-21T13:03:36.443Z,7.68
2022-09-21T13:06:25.146Z,7.22
2022-09-21T13:08:54.064Z,7.20
2022-09-21T13:11:23.717Z,7.47
2022-09-21T13:13:55.260Z,7.35
2022-09-21T13:16:28.865Z,7.75
2022-09-21T13:18:59.368Z,7.30
2022-09-21T13:21:29.883Z,7.80
2022-09-21T13:24:00.993Z,8.73
2022-09-21T13:26:37.253Z,8.18
2022-09-21T13:29:25.985Z,7.43
2022-09-21T13:31:59.343Z,7.40
2022-09-21T13:34:30.086Z,8.48
2022-09-21T13:37:28.378Z,8.27
2022-09-21T13:40:41.305Z,6.90
2022-09-21T13:43:25.209Z,6.93
2022-09-21T13:45:58.143Z,7.60
2022-09-21T13:48:30.495Z,6.22
2022-09-21T13:51:01.679Z,5.93
2022-09-21T13:53:39.919Z,6.47
2022-09-21T13:56:10.890Z,4.50
2022-09-21T13:58:44.817Z,4.20
2022-09-21T14:01:45.845Z,4.15
2022-09-21T14:04:23.864Z,3.45
2022-09-21T14:06:53.424Z,5.18
2022-09-21T14:09:25.544Z,4.47
2022-09-21T14:11:58.018Z,5.05
2022-09-21T14:14:31.496Z,4.97
2022-09-21T14:17:01.145Z,6.20
2022-09-21T14:20:08.245Z,4.82
2022-09-21T14:22:43.429Z,5.88
2022-09-21T14:25:47.744Z,4.72
2022-09-21T14:28:17.688Z,4.65
2022-09-21T14:30:52.746Z,4.90
2022-09-21T14:33:27.735Z,4.50
2022-09-21T14:35:57.368Z,4.80
2022-09-21T14:38:30.363Z,5.43
2022-09-21T14:41:03.220Z,4.63
2022-09-21T14:43:35.372Z,5.15
2022-09-21T14:46:30.455Z,5.07
2022-09-21T14:49:12.569Z,5.53
2022-09-21T14:51:55.645Z,3.72
2022-09-21T14:54:41.424Z,2.22
2022-09-21T14:57:34.799Z,3.00
2022-09-21T15:00:15.636Z,2.80
2022-09-21T15:02:45.624Z,1.83
2022-09-21T15:05:32.418Z,2.10
2022-09-21T15:08:39.092Z,2.20
2022-09-21T15:11:17.653Z,2.13
2022-09-21T15:14:16.662Z,2.70
2022-09-21T15:16:47.105Z,1.90
2022-09-21T15:19:22.244Z,1.85
2022-09-21T15:21:52.381Z,2.00
2022-09-21T15:24:24.820Z,1.95
2022-09-21T15:29:27.953Z,2.78
2022-09-21T15:31:56.342Z,2.60
2022-09-21T15:34:24.972Z,2.40
2022-09-21T15:36:53.307Z,2.13
2022-09-21T15:39:23.686Z,2.53
2022-09-21T15:42:09.148Z,4.60
2022-09-21T15:44:39.412Z,2.08
2022-09-21T15:47:11.136Z,2.22
2022-09-21T15:49:42.761Z,3.00
2022-09-21T15:52:15.668Z,3.17
2022-09-21T15:54:46.148Z,3.00
2022-09-21T15:57:39.257Z,2.78
2022-09-21T16:00:23.138Z,3.13
2022-09-21T16:03:19.017Z,2.50
2022-09-21T16:05:49.986Z,2.50
2022-09-21T16:08:23.421Z,3.43
2022-09-21T16:10:51.445Z,2.80
2022-09-21T16:13:41.082Z,3.35
2022-09-21T16:16:10.884Z,3.35
2022-09-21T16:18:46.035Z,3.45
2022-09-21T16:21:21.951Z,4.22
2022-09-21T16:23:51.793Z,4.00
2022-09-21T16:26:23.065Z,5.43
2022-09-21T16:28:59.881Z,5.10
2022-09-21T16:31:31.933Z,5.18
2022-09-21T16:34:07.745Z,5.90
2022-09-21T16:36:43.644Z,5.80
2022-09-21T16:39:17.273Z,5.85
2022-09-21T16:41:51.876Z,5.47
2022-09-21T16:44:25.384Z,4.60
2022-09-21T16:46:56.074Z,4.07
2022-09-21T16:49:30.190Z,3.95
2022-09-21T16:51:59.230Z,2.88
2022-09-21T16:54:28.476Z,3.67
2022-09-21T16:56:57.996Z,3.35
2022-09-21T16:59:28.404Z,4.07
2022-09-21T17:01:59.037Z,3.72
2022-09-21T17:04:28.657Z,4.32
2022-09-21T17:06:56.740Z,4.07
2022-09-21T17:09:30.042Z,5.38
2022-09-21T17:12:01.209Z,6.15
2022-09-21T17:14:35.333Z,6.72
2022-09-21T17:17:08.279Z,7.05
2022-09-21T17:19:36.822Z,7.28
2022-09-21T17:22:06.800Z,7.97
2022-09-21T17:24:52.472Z,8.68
2022-09-21T17:27:23.687Z,7.95
2022-09-21T17:29:55.063Z,7.82
2022-09-21T17:32:26.016Z,8.02
2022-09-21T17:34:59.690Z,7.35
2022-09-21T17:37:27.841Z,7.70
2022-09-21T17:39:55.629Z,7.50
2022-09-21T17:42:25.584Z,6.93
2022-09-21T17:45:21.541Z,6.13
2022-09-21T17:47:50.799Z,6.35
2022-09-21T17:50:23.957Z,5.95
2022-09-21T17:53:09.865Z,6.32
2022-09-21T17:55:39.553Z,6.18
2022-09-21T17:58:20.418Z,7.25
2022-09-21T18:01:01.666Z,6.78
2022-09-21T18:03:32.524Z,7.38
2022-09-21T18:06:01.492Z,7.07
2022-09-21T18:08:30.331Z,6.68
2022-09-21T18:11:13.484Z,7.05
2022-09-21T18:13:53.926Z,6.03
2022-09-21T18:16:28.163Z,4.85
2022-09-21T18:19:07.409Z,5.65
2022-09-21T18:21:40.702Z,4.03
2022-09-21T18:24:19.947Z,4.35
2022-09-21T18:26:49.173Z,4.10
2022-09-21T18:29:39.375Z,3.95
2022-09-21T18:32:29.392Z,4.43
2022-09-21T18:35:10.480Z,3.53
2022-09-21T18:37:46.962Z,3.70
2022-09-21T18:40:23.299Z,3.85
2022-09-21T18:42:59.191Z,4.00
2022-09-21T18:45:31.814Z,4.38
2022-09-21T18:50:52.106Z,5.13
2022-09-21T18:53:28.123Z,5.30
2022-09-21T18:55:56.873Z,6.38
2022-09-21T18:58:25.157Z,6.60
2022-09-21T19:00:53.870Z,7.32
2022-09-21T19:03:23.884Z,8.02
2022-09-21T19:06:23.243Z,7.40
2022-09-21T19:08:59.668Z,9.02
2022-09-21T19:11:34.968Z,9.77
2022-09-21T19:14:12.001Z,10.77
2022-09-21T19:16:47.858Z,11.93
2022-09-21T19:19:29.949Z,12.50
2022-09-21T19:22:06.391Z,13.90
2022-09-21T19:24:42.531Z,19.77
2022-09-21T19:27:19.852Z,14.88
2022-09-21T19:30:01.489Z,14.18
2022-09-21T19:32:36.431Z,17.03
2022-09-21T19:35:18.925Z,16.83
2022-09-21T19:37:47.592Z,15.48
2022-09-21T19:40:16.818Z,17.58
2022-09-21T19:43:06.154Z,17.25
2022-09-21T19:45:46.020Z,16.15
2022-09-21T19:48:16.768Z,18.00
2022-09-21T19:50:54.623Z,17.02
2022-09-21T19:53:41.140Z,17.85
2022-09-21T19:56:31.624Z,18.15
2022-09-21T19:59:17.785Z,18.75
2022-09-21T20:01:52.511Z,19.65
2022-09-21T20:04:32.141Z,19.13
2022-09-21T20:07:18.813Z,20.65
2022-09-21T20:09:57.386Z,20.75
2022-09-21T20:12:31.397Z,20.90
2022-09-21T20:15:08.024Z,20.10
2022-09-21T20:17:41.000Z,22.95
2022-09-21T20:20:16.456Z,21.23
2022-09-21T20:22:46.405Z,22.27
2022-09-21T20:25:19.987Z,22.25
2022-09-21T20:27:50.654Z,21.33
2022-09-21T20:30:21.082Z,23.38
2022-09-21T20:32:52.949Z,23.35
2022-09-21T20:35:23.007Z,24.05
2022-09-21T20:37:54.434Z,23.05
2022-09-21T20:40:26.306Z,21.48
2022-09-21T20:42:54.420Z,22.80
2022-09-21T20:45:22.504Z,22.15
2022-09-21T20:47:50.594Z,23.35
2022-09-21T20:50:19.690Z,22.77
2022-09-21T20:52:47.618Z,24.27
2022-09-21T20:55:20.184Z,25.20
2022-09-21T20:57:48.778Z,24.75
2022-09-21T21:00:18.255Z,23.77
2022-09-21T21:02:46.043Z,26.52
2022-09-21T21:05:14.209Z,25.55
2022-09-21T21:07:43.346Z,25.83
2022-09-21T21:10:14.080Z,26.77
2022-09-21T21:12:43.888Z,26.08
2022-09-21T21:15:12.654Z,27.05
2022-09-21T21:17:42.040Z,28.25
2022-09-21T21:20:11.147Z,26.70
2022-09-21T21:22:39.113Z,27.25
2022-09-21T21:25:07.297Z,27.77
2022-09-21T21:27:36.056Z,28.13
2022-09-21T21:30:06.930Z,27.48
2022-09-21T21:32:35.272Z,27.58
2022-09-21T21:35:03.620Z,29.92
2022-09-21T21:37:31.433Z,28.52
2022-09-21T21:39:59.285Z,29.00
2022-09-21T21:42:29.365Z,28.77
2022-09-21T21:44:57.652Z,29.38
2022-09-21T21:47:42.037Z,28.08
2022-09-21T21:50:12.031Z,29.48
2022-09-21T21:52:40.586Z,30.45
2022-09-21T21:55:09.116Z,29.67
2022-09-21T21:57:37.519Z,30.48
2022-09-21T22:00:08.266Z,29.88
2022-09-21T22:02:37.472Z,28.40
2022-09-21T22:05:06.373Z,29.80
2022-09-21T22:07:34.097Z,28.38
2022-09-21T22:10:01.823Z,28.85
2022-09-21T22:12:29.992Z,31.15
2022-09-21T22:14:57.821Z,28.52
2022-09-21T22:17:25.521Z,28.77
2022-09-21T22:19:55.699Z,26.67
2022-09-21T22:22:23.531Z,28.10
2022-09-21T22:24:51.220Z,30.33
2022-09-21T22:27:19.334Z,29.30
2022-09-21T22:29:47.170Z,28.48
2022-09-21T22:32:14.869Z,30.48
2022-09-21T22:34:42.925Z,29.40
2022-09-21T22:37:12.440Z,29.45
2022-09-21T22:39:40.129Z,28.80
2022-09-21T22:42:11.048Z,29.75
2022-09-21T22:44:38.893Z,30.58
2022-09-21T22:47:06.758Z,32.78
2022-09-21T22:49:34.735Z,30.63
2022-09-21T22:52:02.939Z,31.95
2022-09-21T22:54:32.001Z,30.92
2022-09-21T22:57:00.051Z,32.85
2022-09-21T22:59:27.982Z,33.20
2022-09-21T23:01:56.369Z,33.35
2022-09-21T23:04:24.726Z,33.00
2022-09-21T23:06:52.738Z,33.33
2022-09-21T23:09:22.121Z,35.40
2022-09-21T23:11:53.501Z,34.85
2022-09-21T23:14:22.637Z,34.28
2022-09-21T23:16:51.032Z,35.20
2022-09-21T23:19:19.097Z,34.20
2022-09-21T23:21:50.282Z,36.33
2022-09-21T23:24:19.171Z,35.92
2022-09-21T23:26:51.084Z,36.85
2022-09-21T23:29:20.393Z,34.17
2022-09-21T23:31:48.850Z,36.05
2022-09-21T23:34:17.134Z,34.83
2022-09-21T23:36:46.289Z,35.10
2022-09-21T23:39:16.004Z,35.05
2022-09-21T23:41:44.732Z,33.42
2022-09-21T23:44:12.683Z,33.00
2022-09-21T23:46:43.609Z,31.42
2022-09-21T23:49:11.597Z,31.95
2022-09-21T23:51:39.908Z,31.23
2022-09-21T23:54:08.614Z,30.95
2022-09-21T23:56:36.646Z,30.80
2022-09-21T23:59:05.448Z,30.38
